Home   Weather   USA   Ferndale   Past weeks
Flag for USA

Past Weather in Ferndale, Michigan, USA — Yesterday and Last 2 Weeks

Currently: 55 °F. Passing clouds. (Weather station: Troy, Oakland/Troy Airport, USA). See more current weather

Past Weather in Ferndale — Graph

°F

Ferndale Temperature Yesterday

Maximum temperature yesterday: 75 °F (at 9:55 am)
Minimum temperature yesterday: 57 °F (at 11:55 pm)
Average temperature yesterday: 68 °F

High & Low Weather Summary for the Past Weeks

 TemperatureHumidityPressure
High90 °F (Jun 6, 4:55 pm)100% (Jun 8, 10:55 pm)30.14 "Hg (Jun 8, 10:55 pm)
Low54 °F (Jun 17, 5:35 am)23% (Jun 16, 6:55 pm)29.75 "Hg (Jun 18, 4:35 pm)
Average73 °F65%29.96 "Hg
* Reported Jun 5 1:15 am — Jun 20 1:55 am, Ferndale. Weather by CustomWeather, © 2021

Note: Actual official high and low records may vary slightly from our data, if they occured in-between our weather recording intervals... More about our weather records

Ferndale Weather History for the Previous 24 Hours

Scroll right to see more
 ConditionsComfort  
Time TempWeatherWind HumidityBarometerVisibility
1:55 am
Sun, Jun 20
55 °FPassing clouds.No wind100%29.77 "Hg7 mi
1:35 am55 °FPassing clouds.No wind100%29.78 "Hg7 mi
1:15 am55 °FFog.No wind100%29.78 "Hg5 mi
12:55 am56 °FClear.No wind100%29.79 "Hg7 mi
12:35 am56 °FFog.No wind100%29.79 "Hg5 mi
12:15 am56 °FClear.No wind100%29.80 "Hg7 mi
11:55 pm
Sat, Jun 19
57 °FPassing clouds.No wind100%29.80 "Hg7 mi
11:35 pm57 °FPassing clouds.No wind100%29.81 "Hg7 mi
11:15 pm58 °FClear.No wind100%29.81 "Hg7 mi
10:55 pm58 °FClear.No wind100%29.81 "Hg10 mi
10:35 pm59 °FClear.No wind100%29.81 "Hg10 mi
10:15 pm61 °FClear.No wind100%29.81 "Hg10 mi
9:35 pm64 °FPassing clouds.No wind98%29.80 "Hg7 mi
9:15 pm65 °FPassing clouds.No wind96%29.80 "Hg10 mi
8:15 pm67 °FPartly sunny.No wind91%29.80 "Hg10 mi
7:55 pm67 °FBroken clouds.No wind90%29.80 "Hg10 mi
7:35 pm66 °FMostly cloudy.No wind93%29.80 "Hg10 mi
7:15 pm67 °FCloudy.No wind90%29.80 "Hg10 mi
6:55 pm65 °FMostly cloudy.No wind96%29.80 "Hg10 mi
6:35 pm65 °FBroken clouds.No wind97%29.80 "Hg10 mi
6:15 pm65 °FBroken clouds.3 mph95%29.81 "Hg10 mi
5:55 pm65 °FMostly cloudy.3 mph93%29.81 "Hg10 mi
5:35 pm66 °FBroken clouds.No wind95%29.80 "Hg10 mi
5:15 pm65 °FHeavy rain. Cloudy.6 mph96%29.80 "Hg2 mi
4:55 pm65 °FLight rain. Cloudy.No wind93%29.81 "Hg10 mi
4:35 pm67 °FHeavy rain. Cloudy.5 mph81%29.82 "Hg10 mi
4:15 pm67 °FOvercast.3 mph78%29.82 "Hg10 mi
3:55 pm68 °FPartly sunny.6 mph77%29.81 "Hg10 mi
3:35 pm67 °FPartly sunny.3 mph79%29.81 "Hg10 mi
3:15 pm67 °FOvercast.3 mph82%29.81 "Hg10 mi
2:55 pm68 °FOvercast.10 mph78%29.82 "Hg10 mi
2:35 pm69 °FOvercast.9 mph78%29.81 "Hg10 mi
2:15 pm69 °FOvercast.No wind76%29.77 "Hg10 mi
1:55 pm68 °FLight rain. Partly sunny.3 mph80%29.77 "Hg10 mi
1:35 pm67 °FLight rain. Broken clouds.5 mph80%29.78 "Hg10 mi
12:55 pm66 °FLight rain. More clouds than sun.10 mph83%29.84 "Hg10 mi
12:35 pm66 °FLight rain. Cloudy.10 mph85%29.85 "Hg10 mi
12:15 pm67 °FLight rain. Cloudy.8 mph76%29.86 "Hg10 mi
11:55 am69 °FLight rain. Cloudy.14 mph71%29.86 "Hg10 mi
11:35 am71 °FLight rain. Cloudy.14 mph79%29.85 "Hg10 mi
11:15 am73 °FLight rain. More clouds than sun.8 mph81%29.84 "Hg10 mi
10:55 am74 °FPartly sunny.10 mph76%29.83 "Hg10 mi
10:35 am74 °FScattered clouds.6 mph74%29.81 "Hg10 mi
10:15 am75 °FSunny.12 mph71%29.81 "Hg10 mi
9:55 am75 °FSunny.7 mph70%29.80 "Hg10 mi
9:35 am74 °FSunny.8 mph74%29.80 "Hg10 mi
9:15 am72 °FSunny.5 mph79%29.80 "Hg10 mi
8:55 am72 °FSunny.5 mph80%29.80 "Hg10 mi
8:35 am71 °FSunny.5 mph81%29.82 "Hg10 mi
7:55 am71 °FSunny.6 mph82%29.82 "Hg10 mi
7:35 am70 °FSunny.8 mph84%29.83 "Hg10 mi
7:15 am70 °FSunny.8 mph84%29.84 "Hg10 mi
6:55 am70 °FSunny.5 mph84%29.83 "Hg10 mi
6:35 am70 °FSunny.3 mph84%29.82 "Hg10 mi
6:15 am70 °FScattered clouds.3 mph85%29.82 "Hg10 mi
5:55 am71 °FScattered clouds.5 mph82%29.82 "Hg10 mi
5:15 am70 °FClear.5 mph85%29.80 "Hg10 mi
4:55 am70 °FClear.3 mph86%29.80 "Hg10 mi
4:35 am70 °FClear.6 mph87%29.81 "Hg10 mi
4:15 am69 °FClear.6 mph90%29.81 "Hg10 mi
3:55 am69 °FClear.5 mph91%29.81 "Hg10 mi
3:35 am69 °FClear.6 mph91%29.81 "Hg10 mi
3:15 am69 °FClear.6 mph91%29.81 "Hg10 mi
Weather by CustomWeather, © 2021

See weather overview